sensor_id;sensor_type;location;lat;lon;timestamp;pressure;altitude;pressure_sealevel;temperature;humidity
17230;BME280;8731;50.364;8.958;2023-02-04T00:02:04;101326.72;;;8.14;78.33
17230;BME280;8731;50.364;8.958;2023-02-04T00:06:27;101321.47;;;8.13;78.92
17230;BME280;8731;50.364;8.958;2023-02-04T00:10:49;101340.66;;;8.11;78.33
17230;BME280;8731;50.364;8.958;2023-02-04T00:15:12;101345.56;;;8.09;78.15
17230;BME280;8731;50.364;8.958;2023-02-04T00:19:35;101354.06;;;8.10;78.21
17230;BME280;8731;50.364;8.958;2023-02-04T00:23:58;101354.06;;;8.10;78.22
17230;BME280;8731;50.364;8.958;2023-02-04T00:28:20;101346.78;;;7.98;78.21
17230;BME280;8731;50.364;8.958;2023-02-04T00:32:42;101348.97;;;8.02;78.35
17230;BME280;8731;50.364;8.958;2023-02-04T00:37:07;101358.19;;;7.95;78.28
17230;BME280;8731;50.364;8.958;2023-02-04T00:41:29;101356.16;;;7.85;78.21
17230;BME280;8731;50.364;8.958;2023-02-04T00:46:00;101364.50;;;7.84;78.03
17230;BME280;8731;50.364;8.958;2023-02-04T00:50:22;101372.47;;;7.87;78.47
17230;BME280;8731;50.364;8.958;2023-02-04T00:54:46;101378.00;;;7.70;78.41
17230;BME280;8731;50.364;8.958;2023-02-04T00:59:08;101391.41;;;7.69;78.55
17230;BME280;8731;50.364;8.958;2023-02-04T01:03:31;101391.59;;;7.78;78.71
17230;BME280;8731;50.364;8.958;2023-02-04T01:07:53;101398.84;;;7.75;79.03
17230;BME280;8731;50.364;8.958;2023-02-04T01:12:17;101417.50;;;7.76;78.58
17230;BME280;8731;50.364;8.958;2023-02-04T01:16:42;101430.34;;;7.77;78.52
17230;BME280;8731;50.364;8.958;2023-02-04T01:21:04;101428.34;;;7.75;78.74
17230;BME280;8731;50.364;8.958;2023-02-04T01:25:27;101436.53;;;7.79;78.91
17230;BME280;8731;50.364;8.958;2023-02-04T01:29:51;101448.78;;;7.69;78.88
17230;BME280;8731;50.364;8.958;2023-02-04T01:34:13;101446.06;;;7.67;79.10
17230;BME280;8731;50.364;8.958;2023-02-04T01:38:35;101443.13;;;7.57;79.53
17230;BME280;8731;50.364;8.958;2023-02-04T01:42:58;101455.97;;;7.59;78.49
17230;BME280;8731;50.364;8.958;2023-02-04T01:47:22;101453.19;;;7.50;78.24
17230;BME280;8731;50.364;8.958;2023-02-04T01:51:45;101457.31;;;7.43;78.06
17230;BME280;8731;50.364;8.958;2023-02-04T01:56:14;101475.00;;;7.35;76.92
17230;BME280;8731;50.364;8.958;2023-02-04T02:00:38;101482.13;;;7.25;76.11
17230;BME280;8731;50.364;8.958;2023-02-04T02:05:02;101476.69;;;7.22;75.96
17230;BME280;8731;50.364;8.958;2023-02-04T02:09:26;101481.19;;;7.18;75.72
17230;BME280;8731;50.364;8.958;2023-02-04T02:13:51;101479.41;;;7.04;75.92
17230;BME280;8731;50.364;8.958;2023-02-04T02:18:14;101486.63;;;7.01;75.88
17230;BME280;8731;50.364;8.958;2023-02-04T02:28:07;101502.38;;;6.86;76.70
17230;BME280;8731;50.364;8.958;2023-02-04T02:32:31;101517.56;;;6.86;76.60
17230;BME280;8731;50.364;8.958;2023-02-04T02:36:54;101509.38;;;6.81;76.62
17230;BME280;8731;50.364;8.958;2023-02-04T02:41:19;101516.00;;;6.73;77.22
17230;BME280;8731;50.364;8.958;2023-02-04T02:45:42;101520.09;;;6.66;77.51
17230;BME280;8731;50.364;8.958;2023-02-04T02:50:05;101510.47;;;6.63;77.47
17230;BME280;8731;50.364;8.958;2023-02-04T02:54:31;101519.28;;;6.60;77.77
17230;BME280;8731;50.364;8.958;2023-02-04T02:59:11;101529.03;;;6.44;77.83
17230;BME280;8731;50.364;8.958;2023-02-04T03:03:36;101525.28;;;6.35;77.96
17230;BME280;8731;50.364;8.958;2023-02-04T03:08:02;101521.47;;;6.31;78.21
17230;BME280;8731;50.364;8.958;2023-02-04T03:12:25;101535.13;;;6.26;78.72
17230;BME280;8731;50.364;8.958;2023-02-04T03:16:50;101547.38;;;6.23;78.51
17230;BME280;8731;50.364;8.958;2023-02-04T03:21:14;101546.16;;;6.14;78.84
17230;BME280;8731;50.364;8.958;2023-02-04T03:25:37;101555.16;;;6.25;78.45
17230;BME280;8731;50.364;8.958;2023-02-04T03:30:00;101543.44;;;6.25;78.71
17230;BME280;8731;50.364;8.958;2023-02-04T03:34:24;101557.88;;;6.26;78.89
17230;BME280;8731;50.364;8.958;2023-02-04T03:38:46;101553.34;;;6.24;78.95
17230;BME280;8731;50.364;8.958;2023-02-04T03:43:08;101555.66;;;6.22;79.45
17230;BME280;8731;50.364;8.958;2023-02-04T03:47:30;101570.34;;;6.25;80.08
17230;BME280;8731;50.364;8.958;2023-02-04T03:51:54;101579.53;;;6.24;80.03
17230;BME280;8731;50.364;8.958;2023-02-04T03:56:16;101581.78;;;6.15;79.89
17230;BME280;8731;50.364;8.958;2023-02-04T04:00:39;101576.91;;;6.17;80.13
17230;BME280;8731;50.364;8.958;2023-02-04T04:05:01;101599.53;;;6.10;79.51
17230;BME280;8731;50.364;8.958;2023-02-04T04:09:25;101592.28;;;6.06;80.13
17230;BME280;8731;50.364;8.958;2023-02-04T04:13:47;101588.72;;;6.11;80.39
17230;BME280;8731;50.364;8.958;2023-02-04T04:18:09;101591.56;;;6.07;80.09
17230;BME280;8731;50.364;8.958;2023-02-04T04:22:32;101582.97;;;5.99;80.51
17230;BME280;8731;50.364;8.958;2023-02-04T04:26:55;101592.47;;;5.95;80.36
17230;BME280;8731;50.364;8.958;2023-02-04T04:31:18;101585.41;;;5.92;80.87
17230;BME280;8731;50.364;8.958;2023-02-04T04:35:40;101597.53;;;5.95;80.70
17230;BME280;8731;50.364;8.958;2023-02-04T04:40:03;101597.75;;;5.96;81.39
17230;BME280;8731;50.364;8.958;2023-02-04T04:44:27;101615.72;;;5.92;81.38
17230;BME280;8731;50.364;8.958;2023-02-04T04:48:49;101626.50;;;5.91;81.33
17230;BME280;8731;50.364;8.958;2023-02-04T04:53:12;101620.69;;;5.98;81.06
17230;BME280;8731;50.364;8.958;2023-02-04T04:57:34;101638.28;;;6.03;81.54
17230;BME280;8731;50.364;8.958;2023-02-04T05:01:57;101642.63;;;6.04;81.35
17230;BME280;8731;50.364;8.958;2023-02-04T05:06:20;101654.56;;;6.05;81.57
17230;BME280;8731;50.364;8.958;2023-02-04T05:10:44;101650.63;;;6.07;81.34
17230;BME280;8731;50.364;8.958;2023-02-04T05:15:07;101645.66;;;6.14;81.56
17230;BME280;8731;50.364;8.958;2023-02-04T05:19:31;101648.63;;;6.18;81.55
17230;BME280;8731;50.364;8.958;2023-02-04T05:23:54;101654.81;;;6.20;81.17
17230;BME280;8731;50.364;8.958;2023-02-04T05:28:16;101665.13;;;6.21;82.01
17230;BME280;8731;50.364;8.958;2023-02-04T05:32:38;101674.72;;;6.24;81.36
17230;BME280;8731;50.364;8.958;2023-02-04T05:37:02;101684.13;;;6.25;81.72
17230;BME280;8731;50.364;8.958;2023-02-04T05:41:24;101687.06;;;6.28;82.04
17230;BME280;8731;50.364;8.958;2023-02-04T05:45:47;101687.78;;;6.27;82.36
17230;BME280;8731;50.364;8.958;2023-02-04T05:50:09;101686.56;;;6.30;82.31
17230;BME280;8731;50.364;8.958;2023-02-04T05:54:33;101694.56;;;6.33;82.68
17230;BME280;8731;50.364;8.958;2023-02-04T05:58:55;101704.38;;;6.37;82.47
17230;BME280;8731;50.364;8.958;2023-02-04T06:03:18;101705.22;;;6.43;82.99
17230;BME280;8731;50.364;8.958;2023-02-04T06:07:40;101697.81;;;6.45;82.67
17230;BME280;8731;50.364;8.958;2023-02-04T06:12:04;101704.28;;;6.43;83.42
17230;BME280;8731;50.364;8.958;2023-02-04T06:16:30;101713.31;;;6.41;83.35
17230;BME280;8731;50.364;8.958;2023-02-04T06:20:52;101725.50;;;6.38;83.26
17230;BME280;8731;50.364;8.958;2023-02-04T06:25:14;101728.88;;;6.44;83.02
17230;BME280;8731;50.364;8.958;2023-02-04T06:29:38;101732.53;;;6.46;82.79
17230;BME280;8731;50.364;8.958;2023-02-04T06:34:00;101741.53;;;6.44;82.49
17230;BME280;8731;50.364;8.958;2023-02-04T06:38:23;101748.72;;;6.41;82.95
17230;BME280;8731;50.364;8.958;2023-02-04T06:42:45;101754.84;;;6.30;82.89
17230;BME280;8731;50.364;8.958;2023-02-04T06:47:08;101747.34;;;6.25;82.64
17230;BME280;8731;50.364;8.958;2023-02-04T06:51:31;101755.66;;;6.24;83.13
17230;BME280;8731;50.364;8.958;2023-02-04T06:55:53;101754.97;;;6.06;83.67
17230;BME280;8731;50.364;8.958;2023-02-04T07:00:15;101756.81;;;6.07;84.25
17230;BME280;8731;50.364;8.958;2023-02-04T07:04:39;101770.84;;;5.87;84.44
17230;BME280;8731;50.364;8.958;2023-02-04T07:09:03;101769.41;;;5.95;84.67
17230;BME280;8731;50.364;8.958;2023-02-04T07:13:25;101774.25;;;5.75;85.25
17230;BME280;8731;50.364;8.958;2023-02-04T07:17:47;101783.69;;;5.89;84.96
17230;BME280;8731;50.364;8.958;2023-02-04T07:22:11;101794.88;;;5.78;85.23
17230;BME280;8731;50.364;8.958;2023-02-04T07:26:33;101804.84;;;5.71;84.85
17230;BME280;8731;50.364;8.958;2023-02-04T07:30:55;101822.78;;;5.48;85.70
17230;BME280;8731;50.364;8.958;2023-02-04T07:35:17;101830.50;;;5.55;86.18
17230;BME280;8731;50.364;8.958;2023-02-04T07:39:41;101833.88;;;5.62;85.91
17230;BME280;8731;50.364;8.958;2023-02-04T07:44:03;101835.88;;;5.70;85.78
17230;BME280;8731;50.364;8.958;2023-02-04T07:48:26;101836.56;;;5.69;86.04
17230;BME280;8731;50.364;8.958;2023-02-04T07:52:48;101842.69;;;5.76;86.10
17230;BME280;8731;50.364;8.958;2023-02-04T07:57:12;101858.81;;;5.71;86.16
17230;BME280;8731;50.364;8.958;2023-02-04T08:01:34;101869.97;;;5.79;85.82
17230;BME280;8731;50.364;8.958;2023-02-04T08:05:56;101870.13;;;5.86;86.16
17230;BME280;8731;50.364;8.958;2023-02-04T08:10:19;101874.03;;;5.84;86.84
17230;BME280;8731;50.364;8.958;2023-02-04T08:14:43;101880.88;;;5.91;86.29
17230;BME280;8731;50.364;8.958;2023-02-04T08:19:05;101883.38;;;5.96;86.42
17230;BME280;8731;50.364;8.958;2023-02-04T08:23:27;101898.88;;;6.05;86.50
17230;BME280;8731;50.364;8.958;2023-02-04T08:27:49;101898.88;;;6.05;86.21
17230;BME280;8731;50.364;8.958;2023-02-04T08:32:13;101899.16;;;6.01;86.81
17230;BME280;8731;50.364;8.958;2023-02-04T08:36:35;101901.97;;;6.15;86.76
17230;BME280;8731;50.364;8.958;2023-02-04T08:40:57;101919.81;;;6.04;86.30
17230;BME280;8731;50.364;8.958;2023-02-04T08:45:20;101934.34;;;5.99;87.10
17230;BME280;8731;50.364;8.958;2023-02-04T08:49:43;101935.00;;;6.22;87.25
17230;BME280;8731;50.364;8.958;2023-02-04T08:54:06;101931.41;;;6.33;86.76
17230;BME280;8731;50.364;8.958;2023-02-04T08:58:28;101935.75;;;6.34;86.63
17230;BME280;8731;50.364;8.958;2023-02-04T09:02:50;101941.59;;;6.45;86.82
17230;BME280;8731;50.364;8.958;2023-02-04T09:07:14;101941.94;;;6.54;86.33
17230;BME280;8731;50.364;8.958;2023-02-04T09:11:36;101952.16;;;6.61;86.69
17230;BME280;8731;50.364;8.958;2023-02-04T09:15:59;101960.28;;;6.40;88.11
17230;BME280;8731;50.364;8.958;2023-02-04T09:20:21;101956.53;;;6.62;88.02
17230;BME280;8731;50.364;8.958;2023-02-04T09:24:45;101964.00;;;6.55;87.26
17230;BME280;8731;50.364;8.958;2023-02-04T09:29:07;101968.50;;;6.63;87.04
17230;BME280;8731;50.364;8.958;2023-02-04T09:33:29;101971.78;;;6.57;87.08
17230;BME280;8731;50.364;8.958;2023-02-04T09:37:52;101974.38;;;6.88;86.88
17230;BME280;8731;50.364;8.958;2023-02-04T09:42:15;101968.63;;;7.01;86.15
17230;BME280;8731;50.364;8.958;2023-02-04T09:46:45;101983.47;;;7.11;85.62
17230;BME280;8731;50.364;8.958;2023-02-04T09:51:11;101987.69;;;7.05;84.95
17230;BME280;8731;50.364;8.958;2023-02-04T09:55:43;101994.97;;;7.53;84.31
17230;BME280;8731;50.364;8.958;2023-02-04T10:00:14;101999.97;;;7.71;84.13
17230;BME280;8731;50.364;8.958;2023-02-04T10:04:38;102004.53;;;8.12;83.36
17230;BME280;8731;50.364;8.958;2023-02-04T10:09:24;102002.44;;;8.60;82.14
17230;BME280;8731;50.364;8.958;2023-02-04T10:13:48;101998.69;;;8.83;81.43
17230;BME280;8731;50.364;8.958;2023-02-04T10:18:17;102012.72;;;9.07;80.30
17230;BME280;8731;50.364;8.958;2023-02-04T10:22:45;102012.44;;;9.18;77.55
17230;BME280;8731;50.364;8.958;2023-02-04T10:27:09;102000.06;;;9.34;76.43
17230;BME280;8731;50.364;8.958;2023-02-04T10:31:37;102016.19;;;9.07;74.09
17230;BME280;8731;50.364;8.958;2023-02-04T10:36:04;102013.69;;;9.34;74.43
17230;BME280;8731;50.364;8.958;2023-02-04T10:40:28;102016.63;;;9.37;74.61
17230;BME280;8731;50.364;8.958;2023-02-04T10:44:52;102021.25;;;9.47;74.48
17230;BME280;8731;50.364;8.958;2023-02-04T10:49:20;102016.22;;;9.34;73.24
17230;BME280;8731;50.364;8.958;2023-02-04T10:53:45;102023.53;;;9.38;72.91
17230;BME280;8731;50.364;8.958;2023-02-04T10:58:26;102014.31;;;9.46;73.58
17230;BME280;8731;50.364;8.958;2023-02-04T11:02:55;102018.19;;;9.30;73.06
17230;BME280;8731;50.364;8.958;2023-02-04T11:07:19;102014.41;;;9.33;73.10
17230;BME280;8731;50.364;8.958;2023-02-04T11:11:48;102024.78;;;9.35;73.09
17230;BME280;8731;50.364;8.958;2023-02-04T11:16:24;102021.69;;;9.17;72.52
17230;BME280;8731;50.364;8.958;2023-02-04T11:20:50;102018.63;;;9.20;72.32
17230;BME280;8731;50.364;8.958;2023-02-04T11:25:30;102019.69;;;9.35;72.75
17230;BME280;8731;50.364;8.958;2023-02-04T11:30:05;102015.91;;;9.38;72.16
17230;BME280;8731;50.364;8.958;2023-02-04T11:34:48;102016.66;;;9.44;71.96
17230;BME280;8731;50.364;8.958;2023-02-04T11:39:15;102030.75;;;9.15;68.93
17230;BME280;8731;50.364;8.958;2023-02-04T11:43:38;102026.03;;;9.58;70.67
17230;BME280;8731;50.364;8.958;2023-02-04T11:48:10;102025.00;;;9.63;68.87
17230;BME280;8731;50.364;8.958;2023-02-04T11:52:34;102028.78;;;9.60;67.70
17230;BME280;8731;50.364;8.958;2023-02-04T11:56:58;102036.44;;;9.67;67.22
17230;BME280;8731;50.364;8.958;2023-02-04T12:01:24;102035.06;;;9.49;66.72
17230;BME280;8731;50.364;8.958;2023-02-04T12:05:52;102033.16;;;9.88;67.32
17230;BME280;8731;50.364;8.958;2023-02-04T12:10:25;102032.81;;;9.65;67.15
17230;BME280;8731;50.364;8.958;2023-02-04T12:14:55;102039.63;;;9.78;66.16
17230;BME280;8731;50.364;8.958;2023-02-04T12:19:22;102034.78;;;9.60;64.32
17230;BME280;8731;50.364;8.958;2023-02-04T12:23:46;102031.25;;;10.33;63.20
17230;BME280;8731;50.364;8.958;2023-02-04T12:28:09;102024.56;;;11.11;61.86
17230;BME280;8731;50.364;8.958;2023-02-04T12:32:31;102020.16;;;12.02;63.42
17230;BME280;8731;50.364;8.958;2023-02-04T12:36:54;102014.78;;;12.36;61.58
17230;BME280;8731;50.364;8.958;2023-02-04T12:41:17;102023.25;;;12.58;58.85
17230;BME280;8731;50.364;8.958;2023-02-04T12:45:40;102022.16;;;13.16;58.95
17230;BME280;8731;50.364;8.958;2023-02-04T12:50:07;102035.81;;;13.24;58.21
17230;BME280;8731;50.364;8.958;2023-02-04T12:54:30;102028.22;;;13.62;58.08
17230;BME280;8731;50.364;8.958;2023-02-04T12:58:54;102035.47;;;12.90;54.33
17230;BME280;8731;50.364;8.958;2023-02-04T13:03:16;102035.78;;;13.31;56.68
17230;BME280;8731;50.364;8.958;2023-02-04T13:07:39;102029.88;;;13.09;56.11
17230;BME280;8731;50.364;8.958;2023-02-04T13:12:02;102026.19;;;12.54;54.73
17230;BME280;8731;50.364;8.958;2023-02-04T13:16:25;102027.28;;;11.97;57.42
17230;BME280;8731;50.364;8.958;2023-02-04T13:20:48;102044.06;;;10.48;58.11
17230;BME280;8731;50.364;8.958;2023-02-04T13:25:10;102035.84;;;10.98;58.50
17230;BME280;8731;50.364;8.958;2023-02-04T13:29:32;102035.59;;;10.68;58.46
17230;BME280;8731;50.364;8.958;2023-02-04T13:33:56;102034.53;;;10.81;58.50
17230;BME280;8731;50.364;8.958;2023-02-04T13:38:18;102029.03;;;10.22;59.54
17230;BME280;8731;50.364;8.958;2023-02-04T13:42:40;102024.03;;;9.82;60.12
17230;BME280;8731;50.364;8.958;2023-02-04T13:47:03;102025.44;;;10.34;59.96
17230;BME280;8731;50.364;8.958;2023-02-04T13:51:26;102028.00;;;10.34;60.97
17230;BME280;8731;50.364;8.958;2023-02-04T13:55:49;102035.78;;;10.02;59.04
17230;BME280;8731;50.364;8.958;2023-02-04T14:00:12;102033.25;;;9.48;59.04
17230;BME280;8731;50.364;8.958;2023-02-04T14:04:35;102028.66;;;9.45;59.26
17230;BME280;8731;50.364;8.958;2023-02-04T14:08:59;102038.56;;;9.17;59.83
17230;BME280;8731;50.364;8.958;2023-02-04T14:13:22;102038.00;;;9.32;59.24
17230;BME280;8731;50.364;8.958;2023-02-04T14:17:44;102041.84;;;9.36;59.46
17230;BME280;8731;50.364;8.958;2023-02-04T14:22:06;102034.94;;;9.54;60.78
17230;BME280;8731;50.364;8.958;2023-02-04T14:26:31;102044.06;;;9.20;59.34
17230;BME280;8731;50.364;8.958;2023-02-04T14:30:54;102044.72;;;9.32;59.14
17230;BME280;8731;50.364;8.958;2023-02-04T14:35:16;102036.94;;;9.37;59.62
17230;BME280;8731;50.364;8.958;2023-02-04T14:39:38;102043.63;;;9.30;59.18
17230;BME280;8731;50.364;8.958;2023-02-04T14:44:02;102049.66;;;9.17;59.47
17230;BME280;8731;50.364;8.958;2023-02-04T14:48:24;102050.63;;;9.45;60.76
17230;BME280;8731;50.364;8.958;2023-02-04T14:52:47;102049.31;;;9.61;62.00
17230;BME280;8731;50.364;8.958;2023-02-04T14:57:09;102048.31;;;9.46;59.89
17230;BME280;8731;50.364;8.958;2023-02-04T15:01:34;102051.06;;;9.75;61.50
17230;BME280;8731;50.364;8.958;2023-02-04T15:05:56;102049.06;;;9.52;60.33
17230;BME280;8731;50.364;8.958;2023-02-04T15:10:19;102056.66;;;8.93;60.54
17230;BME280;8731;50.364;8.958;2023-02-04T15:14:42;102052.09;;;9.23;60.73
17230;BME280;8731;50.364;8.958;2023-02-04T15:19:05;102045.47;;;9.18;61.20
17230;BME280;8731;50.364;8.958;2023-02-04T15:23:28;102047.06;;;9.10;61.45
17230;BME280;8731;50.364;8.958;2023-02-04T15:27:50;102056.75;;;8.68;61.62
17230;BME280;8731;50.364;8.958;2023-02-04T15:32:12;102054.28;;;8.75;62.16
17230;BME280;8731;50.364;8.958;2023-02-04T15:36:36;102056.91;;;8.82;62.05
17230;BME280;8731;50.364;8.958;2023-02-04T15:40:58;102066.50;;;8.65;61.88
17230;BME280;8731;50.364;8.958;2023-02-04T15:45:20;102074.44;;;8.60;62.45
17230;BME280;8731;50.364;8.958;2023-02-04T15:49:43;102086.16;;;8.53;62.01
17230;BME280;8731;50.364;8.958;2023-02-04T15:54:06;102091.00;;;8.51;62.36
17230;BME280;8731;50.364;8.958;2023-02-04T15:58:29;102089.16;;;8.63;62.65
17230;BME280;8731;50.364;8.958;2023-02-04T16:02:51;102085.00;;;8.64;62.63
17230;BME280;8731;50.364;8.958;2023-02-04T16:07:14;102089.47;;;8.46;62.99
17230;BME280;8731;50.364;8.958;2023-02-04T16:11:37;102098.00;;;8.47;63.36
17230;BME280;8731;50.364;8.958;2023-02-04T16:16:00;102097.41;;;8.55;63.98
17230;BME280;8731;50.364;8.958;2023-02-04T16:20:22;102103.50;;;8.37;63.92
17230;BME280;8731;50.364;8.958;2023-02-04T16:24:44;102109.75;;;8.08;64.13
17230;BME280;8731;50.364;8.958;2023-02-04T16:29:09;102112.50;;;8.22;64.89
17230;BME280;8731;50.364;8.958;2023-02-04T16:33:31;102117.56;;;8.10;65.51
17230;BME280;8731;50.364;8.958;2023-02-04T16:37:53;102130.13;;;8.02;65.66
17230;BME280;8731;50.364;8.958;2023-02-04T16:42:16;102123.16;;;8.07;65.88
17230;BME280;8731;50.364;8.958;2023-02-04T16:46:40;102137.34;;;7.99;66.25
17230;BME280;8731;50.364;8.958;2023-02-04T16:51:02;102123.72;;;7.86;66.31
17230;BME280;8731;50.364;8.958;2023-02-04T16:55:25;102135.88;;;7.76;66.45
17230;BME280;8731;50.364;8.958;2023-02-04T16:59:49;102133.41;;;7.70;66.46
17230;BME280;8731;50.364;8.958;2023-02-04T17:04:13;102135.22;;;7.59;65.98
17230;BME280;8731;50.364;8.958;2023-02-04T17:08:35;102136.19;;;7.54;67.17
17230;BME280;8731;50.364;8.958;2023-02-04T17:12:57;102147.22;;;7.42;66.78
17230;BME280;8731;50.364;8.958;2023-02-04T17:17:19;102152.88;;;7.33;66.98
17230;BME280;8731;50.364;8.958;2023-02-04T17:21:44;102144.69;;;7.23;66.90
17230;BME280;8731;50.364;8.958;2023-02-04T17:26:07;102153.00;;;7.04;67.16
17230;BME280;8731;50.364;8.958;2023-02-04T17:30:30;102154.56;;;6.91;68.02
17230;BME280;8731;50.364;8.958;2023-02-04T17:34:52;102158.22;;;6.93;67.58
17230;BME280;8731;50.364;8.958;2023-02-04T17:39:17;102168.16;;;6.86;67.78
17230;BME280;8731;50.364;8.958;2023-02-04T17:43:39;102175.34;;;6.83;67.55
17230;BME280;8731;50.364;8.958;2023-02-04T17:48:02;102178.31;;;7.04;70.58
17230;BME280;8731;50.364;8.958;2023-02-04T17:52:25;102178.16;;;6.78;68.72
17230;BME280;8731;50.364;8.958;2023-02-04T17:56:50;102194.19;;;6.61;68.50
17230;BME280;8731;50.364;8.958;2023-02-04T18:01:14;102191.44;;;6.41;68.15
17230;BME280;8731;50.364;8.958;2023-02-04T18:05:42;102195.09;;;6.43;68.27
17230;BME280;8731;50.364;8.958;2023-02-04T18:10:16;102190.94;;;6.43;68.55
17230;BME280;8731;50.364;8.958;2023-02-04T18:14:42;102191.72;;;6.31;68.52
17230;BME280;8731;50.364;8.958;2023-02-04T18:19:16;102200.75;;;6.24;68.47
17230;BME280;8731;50.364;8.958;2023-02-04T18:23:40;102203.81;;;6.15;68.75
17230;BME280;8731;50.364;8.958;2023-02-04T18:28:12;102191.50;;;6.00;68.70
17230;BME280;8731;50.364;8.958;2023-02-04T18:32:38;102197.28;;;5.88;68.67
17230;BME280;8731;50.364;8.958;2023-02-04T18:37:21;102195.50;;;5.81;69.15
17230;BME280;8731;50.364;8.958;2023-02-04T18:41:49;102192.94;;;5.52;70.04
17230;BME280;8731;50.364;8.958;2023-02-04T18:46:20;102189.28;;;5.50;70.06
17230;BME280;8731;50.364;8.958;2023-02-04T18:50:47;102189.53;;;5.40;70.64
17230;BME280;8731;50.364;8.958;2023-02-04T18:55:20;102181.34;;;5.30;71.24
17230;BME280;8731;50.364;8.958;2023-02-04T18:59:45;102195.16;;;5.21;71.17
17230;BME280;8731;50.364;8.958;2023-02-04T19:04:12;102198.84;;;5.12;72.07
17230;BME280;8731;50.364;8.958;2023-02-04T19:08:43;102202.09;;;4.94;73.03
17230;BME280;8731;50.364;8.958;2023-02-04T19:13:14;102190.63;;;4.96;73.22
17230;BME280;8731;50.364;8.958;2023-02-04T19:17:39;102192.03;;;4.88;72.67
17230;BME280;8731;50.364;8.958;2023-02-04T19:22:17;102200.56;;;4.72;73.54
17230;BME280;8731;50.364;8.958;2023-02-04T19:26:52;102206.56;;;4.56;75.06
17230;BME280;8731;50.364;8.958;2023-02-04T19:31:15;102203.78;;;4.66;74.24
17230;BME280;8731;50.364;8.958;2023-02-04T19:35:39;102206.09;;;4.64;73.68
17230;BME280;8731;50.364;8.958;2023-02-04T19:40:19;102205.88;;;4.51;73.83
17230;BME280;8731;50.364;8.958;2023-02-04T19:44:49;102204.72;;;4.44;74.23
17230;BME280;8731;50.364;8.958;2023-02-04T19:49:16;102206.78;;;4.41;74.97
17230;BME280;8731;50.364;8.958;2023-02-04T19:53:43;102221.44;;;4.21;74.82
17230;BME280;8731;50.364;8.958;2023-02-04T19:58:18;102224.44;;;4.24;75.57
17230;BME280;8731;50.364;8.958;2023-02-04T20:02:43;102235.44;;;4.24;75.76
17230;BME280;8731;50.364;8.958;2023-02-04T20:07:16;102236.81;;;4.17;75.46
17230;BME280;8731;50.364;8.958;2023-02-04T20:11:56;102233.16;;;4.09;76.04
17230;BME280;8731;50.364;8.958;2023-02-04T20:16:37;102234.75;;;4.09;75.94
17230;BME280;8731;50.364;8.958;2023-02-04T20:21:09;102238.19;;;4.09;76.69
17230;BME280;8731;50.364;8.958;2023-02-04T20:25:35;102243.66;;;4.01;77.34
17230;BME280;8731;50.364;8.958;2023-02-04T20:30:00;102250.28;;;3.95;77.94
17230;BME280;8731;50.364;8.958;2023-02-04T20:34:43;102249.66;;;4.13;77.83
17230;BME280;8731;50.364;8.958;2023-02-04T20:39:22;102250.09;;;4.05;77.61
17230;BME280;8731;50.364;8.958;2023-02-04T20:43:48;102245.03;;;3.99;78.89
17230;BME280;8731;50.364;8.958;2023-02-04T20:48:27;102248.00;;;3.91;80.37
17230;BME280;8731;50.364;8.958;2023-02-04T20:53:16;102248.28;;;4.04;78.70
17230;BME280;8731;50.364;8.958;2023-02-04T20:57:43;102249.38;;;4.00;79.95
17230;BME280;8731;50.364;8.958;2023-02-04T21:02:15;102243.19;;;3.92;80.37
17230;BME280;8731;50.364;8.958;2023-02-04T21:06:40;102251.88;;;3.89;79.90
17230;BME280;8731;50.364;8.958;2023-02-04T21:11:03;102250.97;;;3.99;80.34
17230;BME280;8731;50.364;8.958;2023-02-04T21:15:27;102252.59;;;3.99;80.54
17230;BME280;8731;50.364;8.958;2023-02-04T21:19:49;102259.03;;;4.08;80.85
17230;BME280;8731;50.364;8.958;2023-02-04T21:24:11;102255.84;;;4.09;79.58
17230;BME280;8731;50.364;8.958;2023-02-04T21:28:34;102264.53;;;4.11;80.33
17230;BME280;8731;50.364;8.958;2023-02-04T21:32:58;102263.41;;;4.09;80.83
17230;BME280;8731;50.364;8.958;2023-02-04T21:37:21;102259.28;;;4.15;80.04
17230;BME280;8731;50.364;8.958;2023-02-04T21:41:43;102260.19;;;4.21;80.48
17230;BME280;8731;50.364;8.958;2023-02-04T21:46:06;102261.56;;;4.14;80.28
17230;BME280;8731;50.364;8.958;2023-02-04T21:50:30;102249.19;;;4.15;81.24
17230;BME280;8731;50.364;8.958;2023-02-04T21:54:53;102252.38;;;4.25;80.54
17230;BME280;8731;50.364;8.958;2023-02-04T21:59:15;102245.53;;;4.30;80.92
17230;BME280;8731;50.364;8.958;2023-02-04T22:03:38;102241.88;;;4.34;80.77
17230;BME280;8731;50.364;8.958;2023-02-04T22:08:02;102243.03;;;4.36;80.21
17230;BME280;8731;50.364;8.958;2023-02-04T22:12:24;102248.03;;;4.19;82.62
17230;BME280;8731;50.364;8.958;2023-02-04T22:16:47;102254.03;;;4.30;81.65
17230;BME280;8731;50.364;8.958;2023-02-04T22:21:09;102251.72;;;4.38;82.38
17230;BME280;8731;50.364;8.958;2023-02-04T22:25:33;102230.88;;;4.39;82.65
17230;BME280;8731;50.364;8.958;2023-02-04T22:29:55;102238.44;;;4.27;82.47
17230;BME280;8731;50.364;8.958;2023-02-04T22:34:17;102235.47;;;4.36;81.91
17230;BME280;8731;50.364;8.958;2023-02-04T22:38:39;102227.19;;;4.37;81.56
17230;BME280;8731;50.364;8.958;2023-02-04T22:43:03;102228.13;;;4.37;82.05
17230;BME280;8731;50.364;8.958;2023-02-04T22:47:25;102222.59;;;4.45;82.44
17230;BME280;8731;50.364;8.958;2023-02-04T22:51:47;102234.28;;;4.45;82.18
17230;BME280;8731;50.364;8.958;2023-02-04T22:56:10;102232.22;;;4.48;82.08
17230;BME280;8731;50.364;8.958;2023-02-04T23:00:33;102228.09;;;4.48;81.71
17230;BME280;8731;50.364;8.958;2023-02-04T23:04:56;102235.91;;;4.50;81.96
17230;BME280;8731;50.364;8.958;2023-02-04T23:09:18;102228.59;;;4.51;80.71
17230;BME280;8731;50.364;8.958;2023-02-04T23:13:41;102230.41;;;4.52;81.44
17230;BME280;8731;50.364;8.958;2023-02-04T23:18:04;102228.13;;;4.54;80.49
17230;BME280;8731;50.364;8.958;2023-02-04T23:22:27;102219.41;;;4.52;81.40
17230;BME280;8731;50.364;8.958;2023-02-04T23:26:49;102213.91;;;4.54;80.90
17230;BME280;8731;50.364;8.958;2023-02-04T23:31:11;102209.06;;;4.45;81.42
17230;BME280;8731;50.364;8.958;2023-02-04T23:35:35;102226.94;;;4.46;81.64
17230;BME280;8731;50.364;8.958;2023-02-04T23:39:58;102229.69;;;4.48;81.77
17230;BME280;8731;50.364;8.958;2023-02-04T23:44:20;102233.16;;;4.31;81.23